KILM/ILM METAR and TAF weather

Enter ICAO airport designator
Station Type Date Time Source
KILM METAR 2019/07/17 17:53 UTC NOAA

KILM 171753Z 22006KT 10SM BKN041 33/23 A3007 RMK AO2 SLP182 T03330233 10344 20283 58010


Station Type Date Time Source
KILM Decoded METAR 2019/07/17 17:53 UTC NOAA

WILMINGTON INT'L AIRPORT, NC, United States (KILM) 34-16N 077-54W 9M
Jul 17, 2019 - 01:53 PM EDT / 2019.07.17 1753 UTC
Wind: from the SW (220 degrees) at 7 MPH (6 KT):0
Visibility: 10 mile(s):0
Sky conditions: mostly cloudy
Temperature: 91.9 F (33.3 C)
Heat index: 101.3 F (38.5 C):1
Dew Point: 73.9 F (23.3 C)
Relative Humidity: 55%
Pressure (altimeter): 30.07 in. Hg (1018 hPa)
Pressure tendency: 0.03 inches (1.0 hPa) lower than three hours ago
ob: KILM 171753Z 22006KT 10SM BKN041 33/23 A3007 RMK AO2 SLP182 T03330233 10344 20283 58010
cycle: 18

Station Type Date Time Source
KILM TAF 2019/07/17 18:22 UTC NOAA

TAF KILM 171720Z 1718/1818 19010KT P6SM FEW070 SCT250
FM180000 21009KT P6SM SCT250
FM181500 21010G16KT P6SM FEW060 SCT250

Example: see airport list